Time;durP1;ratioP1;P1;durP2;ratioP2;P2;SDS_P1;SDS_P2;PMS_P1;PMS_P2;Temp;Humidity;BMP_temperature;BMP_pressure;BME280_temperature;BME280_humidity;BME280_pressure;Samples;Min_cycle;Max_cycle;Signal;HPM_P1;HPM_P2
2022/01/20 00:01:48;;;;;;;;;;;4.30;92.40;;;;;;5056052;28;19909;-87
2022/01/20 00:04:25;;;;;;;;;;;4.20;92.60;;;;;;5064187;28;20376;-88
2022/01/20 00:28:29;;;;;;;;;;;4.70;93.30;;;;;;5074959;28;19996;-88
2022/01/20 00:31:45;;;;;;;;;;;4.70;93.10;;;;;;5075458;28;19909;-88
2022/01/20 00:33:47;;;;;;;;;;;4.70;92.70;;;;;;5063404;28;19912;-88
2022/01/20 00:38:42;;;;;;;;;;;4.40;92.50;;;;;;5075388;28;19935;-88
2022/01/20 00:41:17;;;;;;;;;;;4.30;92.80;;;;;;5075333;28;20345;-88
2022/01/20 00:43:42;;;;;;;;;;;4.10;92.90;;;;;;5059378;28;19935;-88
2022/01/20 00:46:08;;;;;;;;;;;4.00;93.20;;;;;;5055208;28;20286;-88
2022/01/20 00:48:34;;;;;;;;;;;4.00;93.50;;;;;;5067480;28;19966;-88
2022/01/20 00:50:59;;;;;;;;;;;4.00;93.60;;;;;;5075138;28;19909;-88
2022/01/20 00:53:25;;;;;;;;;;;4.10;93.70;;;;;;5061593;28;19920;-88
2022/01/20 00:55:50;;;;;;;;;;;4.20;93.80;;;;;;5054962;28;19917;-88
2022/01/20 00:58:16;;;;;;;;;;;4.30;93.80;;;;;;5055029;28;19909;-88
2022/01/20 01:00:41;;;;;;;;;;;4.40;93.80;;;;;;5054906;28;19909;-88
2022/01/20 01:03:07;;;;;;;;;;;4.50;93.70;;;;;;5055957;28;20011;-88
2022/01/20 01:05:36;;;;;;;;;;;4.50;93.40;;;;;;5054855;28;20362;-88
2022/01/20 01:08:02;;;;;;;;;;;4.50;93.30;;;;;;5054801;28;19908;-88
2022/01/20 01:10:29;;;;;;;;;;;4.60;93.20;;;;;;5054723;28;19909;-88
2022/01/20 01:13:04;;;;;;;;;;;4.70;92.80;;;;;;5055688;28;19912;-88
2022/01/20 01:15:35;;;;;;;;;;;4.40;92.30;;;;;;5053373;28;19913;-88
2022/01/20 01:21:11;;;;;;;;;;;4.30;92.50;;;;;;5074884;28;20001;-88
2022/01/20 01:23:41;;;;;;;;;;;4.20;92.60;;;;;;5060854;28;19916;-88
2022/01/20 01:26:08;;;;;;;;;;;4.10;92.80;;;;;;5054452;28;19959;-88
2022/01/20 01:28:34;;;;;;;;;;;4.10;93.10;;;;;;5055299;28;19909;-88
2022/01/20 01:33:37;;;;;;;;;;;4.00;93.30;;;;;;5072535;28;19916;-88
2022/01/20 01:36:04;;;;;;;;;;;4.10;93.50;;;;;;5074111;28;20003;-88
2022/01/20 01:38:36;;;;;;;;;;;4.20;93.70;;;;;;5072716;28;20421;-88
2022/01/20 01:41:03;;;;;;;;;;;4.30;93.70;;;;;;5054141;28;20003;-88
2022/01/20 01:43:31;;;;;;;;;;;4.40;93.70;;;;;;5054082;28;19916;-88
2022/01/20 01:45:57;;;;;;;;;;;4.40;93.70;;;;;;5054085;28;19962;-88
2022/01/20 01:48:22;;;;;;;;;;;4.50;93.50;;;;;;5055758;28;19916;-88
2022/01/20 01:50:48;;;;;;;;;;;4.50;93.40;;;;;;5073919;28;19915;-88
2022/01/20 01:53:16;;;;;;;;;;;4.50;93.10;;;;;;5073835;28;19996;-88
2022/01/20 01:55:41;;;;;;;;;;;4.50;92.70;;;;;;5073609;28;19931;-88
2022/01/20 01:58:07;;;;;;;;;;;4.30;92.00;;;;;;5072068;28;19912;-88
2022/01/20 02:00:33;;;;;;;;;;;4.20;92.30;;;;;;5073756;28;19909;-88
2022/01/20 02:02:59;;;;;;;;;;;4.00;92.40;;;;;;5072325;28;19913;-88
2022/01/20 02:05:25;;;;;;;;;;;3.90;92.60;;;;;;5053628;28;19916;-88
2022/01/20 02:18:50;;;;;;;;;;;4.00;92.90;;;;;;5064468;28;19967;-88
2022/01/20 02:21:16;;;;;;;;;;;3.90;92.90;;;;;;5053433;28;20433;-88
2022/01/20 02:23:42;;;;;;;;;;;3.90;92.90;;;;;;5053676;28;19995;-88
2022/01/20 02:26:08;;;;;;;;;;;4.00;92.90;;;;;;5053400;28;19909;-88
2022/01/20 02:28:34;;;;;;;;;;;4.00;92.80;;;;;;5059838;28;20400;-88
2022/01/20 02:31:00;;;;;;;;;;;4.10;92.80;;;;;;5073315;28;19908;-88
2022/01/20 02:33:27;;;;;;;;;;;4.00;92.80;;;;;;5071485;28;20438;-88
2022/01/20 02:35:55;;;;;;;;;;;4.00;92.80;;;;;;5067686;28;19928;-88
2022/01/20 02:38:28;;;;;;;;;;;3.90;92.60;;;;;;5053170;28;19955;-88
2022/01/20 02:46:22;;;;;;;;;;;3.60;93.40;;;;;;5061779;28;20385;-88
2022/01/20 02:48:48;;;;;;;;;;;3.50;93.70;;;;;;5071329;28;19913;-88
2022/01/20 02:51:13;;;;;;;;;;;3.50;93.90;;;;;;5072927;28;19913;-88
2022/01/20 02:53:39;;;;;;;;;;;3.60;93.90;;;;;;5072888;28;19991;-88
2022/01/20 02:56:05;;;;;;;;;;;3.70;94.00;;;;;;5066289;28;19924;-88
2022/01/20 02:58:30;;;;;;;;;;;3.80;94.00;;;;;;5052976;28;20424;-88
2022/01/20 03:00:56;;;;;;;;;;;3.90;94.00;;;;;;5054003;28;19909;-88
2022/01/20 03:03:22;;;;;;;;;;;4.00;93.90;;;;;;5052936;28;20396;-88
2022/01/20 03:05:47;;;;;;;;;;;4.00;93.80;;;;;;5072072;28;19908;-88
2022/01/20 03:08:13;;;;;;;;;;;4.20;93.60;;;;;;5072877;28;20259;-88
2022/01/20 03:10:39;;;;;;;;;;;4.20;93.30;;;;;;5072921;28;20385;-88
2022/01/20 03:13:05;;;;;;;;;;;4.20;93.20;;;;;;5059775;28;19908;-88
2022/01/20 03:15:34;;;;;;;;;;;4.10;93.00;;;;;;5052734;28;20085;-88
2022/01/20 03:17:59;;;;;;;;;;;3.90;92.60;;;;;;5052783;28;19908;-88
2022/01/20 03:20:25;;;;;;;;;;;3.90;92.90;;;;;;5066993;28;19908;-88
2022/01/20 03:22:50;;;;;;;;;;;3.70;93.00;;;;;;5072810;28;20378;-88
2022/01/20 03:25:16;;;;;;;;;;;3.60;93.30;;;;;;5073031;28;20408;-88
2022/01/20 03:27:41;;;;;;;;;;;3.50;93.60;;;;;;5072611;28;19930;-88
2022/01/20 03:30:08;;;;;;;;;;;3.50;93.80;;;;;;5060829;28;20244;-88
2022/01/20 03:32:34;;;;;;;;;;;3.50;93.90;;;;;;5052615;28;19913;-88
2022/01/20 03:35:00;;;;;;;;;;;3.70;94.00;;;;;;5053820;28;19912;-88
2022/01/20 03:37:25;;;;;;;;;;;3.70;93.90;;;;;;5064933;28;19919;-88
2022/01/20 03:39:51;;;;;;;;;;;3.80;93.80;;;;;;5072604;28;19913;-88
2022/01/20 03:42:16;;;;;;;;;;;3.80;93.70;;;;;;5072606;28;19934;-88
2022/01/20 03:44:42;;;;;;;;;;;3.90;93.60;;;;;;5073126;28;19916;-88
2022/01/20 03:47:09;;;;;;;;;;;4.00;93.50;;;;;;5062444;28;20263;-88
2022/01/20 03:52:01;;;;;;;;;;;4.00;93.00;;;;;;5072501;28;20009;-88
2022/01/20 03:54:26;;;;;;;;;;;4.00;92.80;;;;;;5072260;28;19921;-88
2022/01/20 03:56:52;;;;;;;;;;;3.90;92.70;;;;;;5065015;28;19919;-88
2022/01/20 03:59:17;;;;;;;;;;;3.70;93.00;;;;;;5052406;28;19915;-88
2022/01/20 04:01:43;;;;;;;;;;;3.70;93.30;;;;;;5053061;28;20260;-88
2022/01/20 04:04:09;;;;;;;;;;;3.50;93.60;;;;;;5056302;28;19924;-88
2022/01/20 04:06:34;;;;;;;;;;;3.50;93.90;;;;;;5056972;28;20374;-88
2022/01/20 04:09:00;;;;;;;;;;;3.40;94.30;;;;;;5055875;28;20354;-88
2022/01/20 04:11:27;;;;;;;;;;;3.40;94.40;;;;;;5055878;28;19909;-87
2022/01/20 04:13:53;;;;;;;;;;;3.50;94.10;;;;;;5055722;28;20272;-88
2022/01/20 04:16:21;;;;;;;;;;;3.50;94.00;;;;;;5070824;28;19966;-88
2022/01/20 04:18:56;;;;;;;;;;;3.60;93.90;;;;;;5075786;28;19995;-88
2022/01/20 04:21:29;;;;;;;;;;;3.60;93.80;;;;;;5061590;28;19917;-88
2022/01/20 04:23:55;;;;;;;;;;;3.60;93.80;;;;;;5055664;28;19959;-88
2022/01/20 04:26:21;;;;;;;;;;;3.70;93.80;;;;;;5070682;28;19917;-88
2022/01/20 04:28:48;;;;;;;;;;;3.70;93.80;;;;;;5075483;28;19909;-88
2022/01/20 04:31:14;;;;;;;;;;;3.70;93.80;;;;;;5075784;28;20011;-88
2022/01/20 04:33:39;;;;;;;;;;;3.70;93.80;;;;;;5075513;28;19908;-88
2022/01/20 04:36:06;;;;;;;;;;;3.70;93.50;;;;;;5062321;28;20244;-88
2022/01/20 04:38:32;;;;;;;;;;;3.50;93.30;;;;;;5055331;28;19924;-88
2022/01/20 04:40:57;;;;;;;;;;;3.50;93.40;;;;;;5055322;28;19909;-88
2022/01/20 04:43:24;;;;;;;;;;;3.40;93.50;;;;;;5055319;28;19915;-88
2022/01/20 04:46:05;;;;;;;;;;;3.30;93.70;;;;;;5056292;28;19913;-88
2022/01/20 04:49:03;;;;;;;;;;;3.30;93.70;;;;;;5055487;28;19948;-87
2022/01/20 04:57:18;;;;;;;;;;;3.60;93.60;;;;;;5033967;28;20282;-88
2022/01/20 04:59:44;;;;;;;;;;;3.70;93.10;;;;;;5054995;28;20466;-88
2022/01/20 05:02:10;;;;;;;;;;;3.60;92.80;;;;;;5055196;28;19908;-88
2022/01/20 05:04:36;;;;;;;;;;;3.60;92.70;;;;;;5054747;28;19909;-88
2022/01/20 05:07:01;;;;;;;;;;;3.60;92.70;;;;;;5056219;28;19917;-88
2022/01/20 05:09:27;;;;;;;;;;;3.60;92.80;;;;;;5054720;28;20366;-88
2022/01/20 05:12:10;;;;;;;;;;;3.60;92.90;;;;;;5054715;28;19909;-88
2022/01/20 05:14:35;;;;;;;;;;;3.60;92.60;;;;;;5054905;28;19917;-88
2022/01/20 05:17:02;;;;;;;;;;;3.50;92.50;;;;;;5073952;28;20392;-88
2022/01/20 05:19:29;;;;;;;;;;;3.30;92.90;;;;;;5074666;28;20350;-88
2022/01/20 05:21:54;;;;;;;;;;;3.20;93.30;;;;;;5072839;28;19938;-88
2022/01/20 05:24:22;;;;;;;;;;;3.20;93.50;;;;;;5074524;28;20286;-88
2022/01/20 05:26:50;;;;;;;;;;;3.10;93.60;;;;;;5056417;28;20367;-88
2022/01/20 05:29:19;;;;;;;;;;;3.00;93.70;;;;;;5054343;28;19909;-88
2022/01/20 05:31:44;;;;;;;;;;;3.00;94.00;;;;;;5054342;28;19992;-88
2022/01/20 05:34:10;;;;;;;;;;;3.00;94.10;;;;;;5054471;28;19996;-88
2022/01/20 05:36:35;;;;;;;;;;;3.00;94.10;;;;;;5069950;28;20290;-88
2022/01/20 05:39:01;;;;;;;;;;;3.00;94.20;;;;;;5074229;28;19962;-88
2022/01/20 05:41:27;;;;;;;;;;;3.00;94.30;;;;;;5074157;28;19908;-88
2022/01/20 05:43:52;;;;;;;;;;;3.10;94.20;;;;;;5073683;28;19909;-88
2022/01/20 05:46:22;;;;;;;;;;;3.20;94.10;;;;;;5060570;28;19913;-88
2022/01/20 05:48:49;;;;;;;;;;;3.30;93.90;;;;;;5052238;28;19921;-88
2022/01/20 05:51:15;;;;;;;;;;;3.40;93.70;;;;;;5046696;28;19913;-88
2022/01/20 05:53:41;;;;;;;;;;;3.40;93.60;;;;;;5052894;28;19919;-88
2022/01/20 05:56:06;;;;;;;;;;;3.40;93.60;;;;;;5054029;28;19924;-88
2022/01/20 05:58:36;;;;;;;;;;;3.40;93.60;;;;;;5052524;28;19916;-88
2022/01/20 06:01:05;;;;;;;;;;;3.30;93.60;;;;;;5053013;28;19920;-88
2022/01/20 06:03:36;;;;;;;;;;;3.10;93.80;;;;;;5053037;28;19913;-88
2022/01/20 06:06:09;;;;;;;;;;;3.10;94.00;;;;;;5051131;28;19916;-88
2022/01/20 06:08:35;;;;;;;;;;;3.10;94.10;;;;;;5052817;28;19936;-88
2022/01/20 06:11:01;;;;;;;;;;;3.10;94.20;;;;;;5041156;28;19951;-88
2022/01/20 06:13:27;;;;;;;;;;;3.10;94.30;;;;;;5055773;28;19963;-88
2022/01/20 06:15:52;;;;;;;;;;;3.10;94.30;;;;;;5059271;28;20395;-88
2022/01/20 06:18:18;;;;;;;;;;;3.10;94.30;;;;;;5053616;28;19965;-88
2022/01/20 06:20:43;;;;;;;;;;;3.10;94.30;;;;;;5054506;28;20420;-88
2022/01/20 06:23:09;;;;;;;;;;;3.20;94.20;;;;;;5052643;28;19913;-88
2022/01/20 06:25:35;;;;;;;;;;;3.10;94.20;;;;;;5052564;28;19923;-88
2022/01/20 06:28:01;;;;;;;;;;;3.10;94.20;;;;;;5052085;28;19924;-88
2022/01/20 06:30:27;;;;;;;;;;;3.20;94.20;;;;;;5052068;28;20006;-87
2022/01/20 06:32:53;;;;;;;;;;;3.30;94.10;;;;;;5048900;28;19952;-88
2022/01/20 06:35:19;;;;;;;;;;;3.40;93.90;;;;;;5053627;28;19924;-88
2022/01/20 06:37:45;;;;;;;;;;;3.40;93.80;;;;;;5050857;28;19913;-88
2022/01/20 06:40:10;;;;;;;;;;;3.50;93.70;;;;;;5050856;28;20366;-88
2022/01/20 06:42:36;;;;;;;;;;;3.50;93.70;;;;;;5049986;28;20394;-88
2022/01/20 06:45:06;;;;;;;;;;;3.60;93.60;;;;;;5042312;28;20013;-88
2022/01/20 06:47:32;;;;;;;;;;;3.50;93.00;;;;;;5050709;28;19931;-88
2022/01/20 06:49:57;;;;;;;;;;;3.50;93.00;;;;;;5050465;28;19913;-88
2022/01/20 06:52:23;;;;;;;;;;;3.50;93.00;;;;;;5049779;28;19921;-88
2022/01/20 06:54:49;;;;;;;;;;;3.40;93.10;;;;;;5070595;23;19925;-88
2022/01/20 06:57:14;;;;;;;;;;;3.40;93.20;;;;;;5069280;28;19912;-87
2022/01/20 06:59:40;;;;;;;;;;;3.40;93.10;;;;;;5070042;28;20003;-87
2022/01/20 07:02:06;;;;;;;;;;;3.40;93.00;;;;;;5071183;28;19912;-88
2022/01/20 07:04:32;;;;;;;;;;;3.50;93.00;;;;;;5073316;28;19916;-87
2022/01/20 07:06:58;;;;;;;;;;;3.40;93.00;;;;;;5073756;28;19913;-88
2022/01/20 07:09:24;;;;;;;;;;;3.40;93.00;;;;;;5065364;28;19912;-88
2022/01/20 07:11:50;;;;;;;;;;;3.50;93.10;;;;;;5058797;28;20007;-88
2022/01/20 07:14:16;;;;;;;;;;;3.60;93.20;;;;;;5059961;28;19962;-89
2022/01/20 07:16:41;;;;;;;;;;;3.70;93.10;;;;;;5066565;28;20309;-89
2022/01/20 07:19:07;;;;;;;;;;;3.70;93.00;;;;;;5060303;28;20259;-89
2022/01/20 07:21:33;;;;;;;;;;;3.80;92.70;;;;;;5065797;28;19943;-89
2022/01/20 07:23:58;;;;;;;;;;;3.80;92.70;;;;;;5058267;28;20302;-89
2022/01/20 07:26:24;;;;;;;;;;;3.80;92.40;;;;;;5054354;28;19913;-89
2022/01/20 07:28:49;;;;;;;;;;;3.60;92.20;;;;;;5060099;28;19913;-89
2022/01/20 07:31:20;;;;;;;;;;;3.50;92.40;;;;;;5049835;28;19960;-89
2022/01/20 07:33:46;;;;;;;;;;;3.50;92.50;;;;;;5053912;28;20042;-89
2022/01/20 07:36:11;;;;;;;;;;;3.60;92.70;;;;;;5048097;28;20419;-89
2022/01/20 07:38:37;;;;;;;;;;;3.80;92.60;;;;;;5059257;28;19920;-88
2022/01/20 07:41:02;;;;;;;;;;;3.80;92.00;;;;;;5054925;28;19919;-89
2022/01/20 07:43:28;;;;;;;;;;;3.80;91.70;;;;;;5057688;28;20256;-89
2022/01/20 07:45:54;;;;;;;;;;;3.70;91.90;;;;;;5059722;28;20309;-88
2022/01/20 07:48:20;;;;;;;;;;;3.60;92.30;;;;;;5057006;28;20286;-88
2022/01/20 07:50:45;;;;;;;;;;;3.60;92.30;;;;;;5062597;28;19913;-89
2022/01/20 07:53:11;;;;;;;;;;;3.60;92.20;;;;;;5065247;28;20375;-89
2022/01/20 07:55:38;;;;;;;;;;;3.50;92.40;;;;;;5066170;28;19927;-89
2022/01/20 07:58:04;;;;;;;;;;;3.40;92.90;;;;;;5058105;28;20254;-88
2022/01/20 08:00:30;;;;;;;;;;;3.40;93.20;;;;;;5052173;28;20270;-88
2022/01/20 08:02:55;;;;;;;;;;;3.30;93.40;;;;;;5057693;28;19912;-88
2022/01/20 08:05:21;;;;;;;;;;;3.30;93.40;;;;;;5061674;28;19917;-88
2022/01/20 08:07:48;;;;;;;;;;;3.30;93.50;;;;;;5057404;28;19974;-88
2022/01/20 08:10:14;;;;;;;;;;;3.30;93.50;;;;;;5053591;28;19912;-88
2022/01/20 08:12:40;;;;;;;;;;;3.30;93.50;;;;;;5054242;28;19920;-88
2022/01/20 08:15:09;;;;;;;;;;;3.30;93.60;;;;;;5052684;28;19921;-88
2022/01/20 08:17:35;;;;;;;;;;;3.40;93.70;;;;;;5053762;28;19913;-88
2022/01/20 08:20:01;;;;;;;;;;;3.40;93.60;;;;;;5054356;28;19948;-89
2022/01/20 08:22:28;;;;;;;;;;;3.40;93.50;;;;;;5054120;28;19955;-88
2022/01/20 08:24:54;;;;;;;;;;;3.40;93.40;;;;;;5061042;28;20329;-88
2022/01/20 08:27:20;;;;;;;;;;;3.40;93.50;;;;;;5056519;28;19912;-88
2022/01/20 08:29:45;;;;;;;;;;;3.50;93.50;;;;;;5060565;28;19939;-88
2022/01/20 08:32:11;;;;;;;;;;;3.50;93.40;;;;;;5056667;28;21430;-88
2022/01/20 08:34:36;;;;;;;;;;;3.50;93.00;;;;;;5059912;28;20024;-88
2022/01/20 08:37:02;;;;;;;;;;;3.60;92.90;;;;;;5052929;28;20386;-88
2022/01/20 08:41:58;;;;;;;;;;;3.70;92.70;;;;;;5052776;28;19912;-88
2022/01/20 08:44:23;;;;;;;;;;;3.70;92.70;;;;;;5060316;28;19913;-88
2022/01/20 08:46:50;;;;;;;;;;;3.80;92.80;;;;;;5053749;28;19920;-88
2022/01/20 08:49:16;;;;;;;;;;;3.90;92.70;;;;;;5050250;28;19913;-88
2022/01/20 08:51:41;;;;;;;;;;;4.00;92.30;;;;;;5061054;28;20413;-88
2022/01/20 08:54:07;;;;;;;;;;;4.10;92.20;;;;;;5051391;28;19921;-88
2022/01/20 08:56:35;;;;;;;;;;;4.20;91.90;;;;;;5052655;28;19913;-88
2022/01/20 08:59:02;;;;;;;;;;;4.20;91.30;;;;;;5068395;28;20003;-88
2022/01/20 09:01:28;;;;;;;;;;;4.20;91.10;;;;;;5056641;28;19970;-88
2022/01/20 09:03:54;;;;;;;;;;;4.20;91.50;;;;;;5051014;28;21360;-88
2022/01/20 09:06:20;;;;;;;;;;;4.10;91.60;;;;;;5054635;28;20259;-88
2022/01/20 09:08:47;;;;;;;;;;;4.00;91.60;;;;;;5052712;28;19921;-88
2022/01/20 09:11:22;;;;;;;;;;;4.00;91.60;;;;;;5052998;28;19913;-88
2022/01/20 09:16:32;;;;;;;;;;;4.10;92.00;;;;;;5051715;28;20063;-88
2022/01/20 09:18:58;;;;;;;;;;;4.10;91.80;;;;;;5054806;28;19999;-87
2022/01/20 09:21:24;;;;;;;;;;;4.20;91.60;;;;;;5054887;28;19920;-88
2022/01/20 09:23:50;;;;;;;;;;;4.30;91.50;;;;;;5052041;28;19913;-88
2022/01/20 09:26:16;;;;;;;;;;;4.30;91.20;;;;;;5052642;28;20382;-88
2022/01/20 09:28:42;;;;;;;;;;;4.40;90.70;;;;;;5058779;28;20023;-88
2022/01/20 09:31:08;;;;;;;;;;;4.50;90.20;;;;;;5054678;28;19912;-88
2022/01/20 09:33:34;;;;;;;;;;;4.50;89.90;;;;;;5052587;28;20922;-88
2022/01/20 09:36:00;;;;;;;;;;;4.70;90.30;;;;;;5052846;28;19964;-88
2022/01/20 09:38:26;;;;;;;;;;;4.90;90.20;;;;;;5052273;28;19920;-88
2022/01/20 09:40:52;;;;;;;;;;;5.10;90.00;;;;;;5052132;28;19935;-87
2022/01/20 09:43:17;;;;;;;;;;;5.10;89.40;;;;;;5050471;28;19913;-87
2022/01/20 09:45:45;;;;;;;;;;;5.10;88.80;;;;;;5051809;28;19975;-88
2022/01/20 09:48:11;;;;;;;;;;;5.30;88.70;;;;;;5054912;28;19948;-88
2022/01/20 09:50:37;;;;;;;;;;;5.40;88.30;;;;;;5051103;28;19913;-88
2022/01/20 09:53:03;;;;;;;;;;;5.30;87.40;;;;;;5053466;28;19974;-88
2022/01/20 09:55:30;;;;;;;;;;;5.40;87.80;;;;;;5050764;28;19921;-88
2022/01/20 09:57:56;;;;;;;;;;;5.50;87.60;;;;;;5065026;28;20000;-88
2022/01/20 10:00:21;;;;;;;;;;;5.60;86.40;;;;;;5052110;28;20003;-88
2022/01/20 10:02:57;;;;;;;;;;;5.70;85.70;;;;;;5052196;28;19917;-88
2022/01/20 10:05:24;;;;;;;;;;;5.80;85.10;;;;;;5052044;28;20673;-88
2022/01/20 10:07:49;;;;;;;;;;;5.90;84.20;;;;;;5051397;28;19991;-88
2022/01/20 10:10:15;;;;;;;;;;;6.00;84.20;;;;;;5051313;28;20016;-88
2022/01/20 10:12:41;;;;;;;;;;;6.20;84.00;;;;;;5051870;28;19956;-88
2022/01/20 10:15:10;;;;;;;;;;;6.20;84.00;;;;;;5052947;28;20007;-88
2022/01/20 10:17:36;;;;;;;;;;;5.90;83.20;;;;;;5050605;28;19956;-87
2022/01/20 10:20:05;;;;;;;;;;;6.00;84.10;;;;;;5050618;28;21489;-88
2022/01/20 10:22:33;;;;;;;;;;;6.00;84.40;;;;;;5050609;28;19913;-88
2022/01/20 10:25:01;;;;;;;;;;;6.00;84.50;;;;;;5054567;28;19921;-87
2022/01/20 10:27:27;;;;;;;;;;;6.00;85.20;;;;;;5052451;28;19916;-87
2022/01/20 10:30:19;;;;;;;;;;;5.90;85.00;;;;;;5065269;28;19936;-87
2022/01/20 10:32:52;;;;;;;;;;;5.90;85.30;;;;;;5049871;28;19917;-87
2022/01/20 10:35:23;;;;;;;;;;;6.00;84.20;;;;;;5050320;28;19917;-87
2022/01/20 10:38:01;;;;;;;;;;;6.00;84.50;;;;;;5050182;28;20256;-87
2022/01/20 10:40:26;;;;;;;;;;;6.20;84.50;;;;;;5049904;28;20333;-87
2022/01/20 10:42:53;;;;;;;;;;;6.10;83.90;;;;;;5050729;28;19917;-87
2022/01/20 10:45:20;;;;;;;;;;;6.30;84.50;;;;;;5049272;28;20570;-88
2022/01/20 10:47:47;;;;;;;;;;;6.40;84.50;;;;;;5052401;28;19927;-87
2022/01/20 10:50:18;;;;;;;;;;;6.60;84.00;;;;;;5051126;28;20316;-88
2022/01/20 10:52:44;;;;;;;;;;;6.60;84.40;;;;;;5052101;28;19912;-88
2022/01/20 10:55:21;;;;;;;;;;;6.50;83.80;;;;;;5059068;28;19966;-87
2022/01/20 10:57:46;;;;;;;;;;;6.50;84.80;;;;;;5050590;28;19952;-87
2022/01/20 11:00:16;;;;;;;;;;;6.70;84.30;;;;;;5051729;28;19948;-87
2022/01/20 11:02:41;;;;;;;;;;;6.80;84.50;;;;;;5050025;28;19917;-87
2022/01/20 11:05:07;;;;;;;;;;;6.70;83.90;;;;;;5059276;28;19912;-87
2022/01/20 11:07:33;;;;;;;;;;;6.70;84.00;;;;;;5051103;28;20359;-87
2022/01/20 11:10:04;;;;;;;;;;;6.90;83.90;;;;;;5057479;28;19951;-87
2022/01/20 11:12:30;;;;;;;;;;;7.20;83.50;;;;;;5062040;28;19913;-87
2022/01/20 11:14:57;;;;;;;;;;;7.40;82.80;;;;;;5059001;28;19970;-87
2022/01/20 11:17:24;;;;;;;;;;;7.50;81.50;;;;;;5051570;28;20274;-88
2022/01/20 11:19:50;;;;;;;;;;;7.60;81.60;;;;;;5059117;28;19920;-88
2022/01/20 11:22:16;;;;;;;;;;;7.70;81.10;;;;;;5056834;28;19908;-87
2022/01/20 11:24:43;;;;;;;;;;;7.50;81.40;;;;;;5056816;28;19917;-87
2022/01/20 11:27:10;;;;;;;;;;;7.40;81.60;;;;;;5056758;28;19909;-87
2022/01/20 11:29:42;;;;;;;;;;;7.10;82.30;;;;;;5057717;28;20033;-87
2022/01/20 11:32:18;;;;;;;;;;;7.00;82.50;;;;;;5057989;28;19966;-87
2022/01/20 11:35:01;;;;;;;;;;;6.90;83.70;;;;;;5056538;28;20102;-87
2022/01/20 11:37:31;;;;;;;;;;;6.90;84.20;;;;;;5057621;28;20310;-87
2022/01/20 11:40:08;;;;;;;;;;;6.90;84.80;;;;;;5056786;28;19955;-87
2022/01/20 11:42:33;;;;;;;;;;;7.00;84.50;;;;;;5057453;28;19920;-87
2022/01/20 11:44:59;;;;;;;;;;;7.20;84.50;;;;;;5057798;28;19912;-87
2022/01/20 11:47:32;;;;;;;;;;;7.30;83.50;;;;;;5056346;28;19908;-87
2022/01/20 11:49:57;;;;;;;;;;;7.40;83.90;;;;;;5056690;28;19916;-87
2022/01/20 11:52:27;;;;;;;;;;;7.40;81.70;;;;;;5057376;28;19912;-87
2022/01/20 11:54:52;;;;;;;;;;;7.50;82.30;;;;;;5057293;28;19929;-87
2022/01/20 11:57:27;;;;;;;;;;;7.70;79.00;;;;;;5072445;28;19935;-88
2022/01/20 11:59:56;;;;;;;;;;;7.80;79.40;;;;;;5075341;28;19916;-87
2022/01/20 12:02:27;;;;;;;;;;;7.90;78.30;;;;;;5068780;28;19948;-87
2022/01/20 12:04:53;;;;;;;;;;;8.00;76.90;;;;;;5056111;28;19943;-87
2022/01/20 12:07:26;;;;;;;;;;;8.30;78.30;;;;;;5056302;28;19931;-87
2022/01/20 12:10:02;;;;;;;;;;;8.30;76.60;;;;;;5071484;28;19912;-87
2022/01/20 12:12:28;;;;;;;;;;;8.50;76.50;;;;;;5075980;28;19932;-88
2022/01/20 12:14:54;;;;;;;;;;;8.70;76.00;;;;;;5074076;28;20370;-88
2022/01/20 12:17:20;;;;;;;;;;;8.70;75.00;;;;;;5075796;28;19914;-87
2022/01/20 12:19:47;;;;;;;;;;;8.80;76.60;;;;;;5073980;28;20011;-87
2022/01/20 12:22:13;;;;;;;;;;;8.60;76.30;;;;;;5075166;28;19912;-87
2022/01/20 12:24:48;;;;;;;;;;;8.40;76.10;;;;;;5058143;28;19924;-88
2022/01/20 12:27:15;;;;;;;;;;;8.10;77.10;;;;;;5052716;28;19932;-87
2022/01/20 12:29:41;;;;;;;;;;;8.20;76.90;;;;;;5052634;28;19947;-87
2022/01/20 12:32:10;;;;;;;;;;;8.40;77.20;;;;;;5053591;28;19913;-87
2022/01/20 12:34:36;;;;;;;;;;;8.50;75.50;;;;;;5053491;28;19925;-87
2022/01/20 12:37:01;;;;;;;;;;;8.70;75.90;;;;;;5051621;28;19920;-88
2022/01/20 12:39:29;;;;;;;;;;;9.00;75.40;;;;;;5054398;28;19913;-87
2022/01/20 12:41:58;;;;;;;;;;;8.40;75.10;;;;;;5054122;28;19913;-87
2022/01/20 12:44:24;;;;;;;;;;;8.00;76.80;;;;;;5052803;28;20325;-87
2022/01/20 12:46:50;;;;;;;;;;;7.50;79.00;;;;;;5063439;28;20154;-88
2022/01/20 12:49:16;;;;;;;;;;;7.40;79.80;;;;;;5053705;28;19913;-87
2022/01/20 12:51:42;;;;;;;;;;;7.30;80.80;;;;;;5052358;28;19927;-88
2022/01/20 12:54:08;;;;;;;;;;;7.00;81.30;;;;;;5052313;28;19920;-88
2022/01/20 12:56:35;;;;;;;;;;;7.00;82.20;;;;;;5051992;28;19997;-88
2022/01/20 12:59:01;;;;;;;;;;;6.90;82.50;;;;;;5052689;28;19920;-88
2022/01/20 13:01:37;;;;;;;;;;;6.90;82.80;;;;;;5052040;28;19913;-88
2022/01/20 13:04:02;;;;;;;;;;;6.90;82.90;;;;;;5052204;28;20035;-87
2022/01/20 13:06:29;;;;;;;;;;;6.80;83.10;;;;;;5053124;28;20327;-88
2022/01/20 13:08:55;;;;;;;;;;;6.70;83.90;;;;;;5052368;28;19921;-87
2022/01/20 13:11:27;;;;;;;;;;;6.60;83.90;;;;;;5048941;28;19931;-87
2022/01/20 13:13:53;;;;;;;;;;;6.50;83.90;;;;;;5053346;28;19925;-87
2022/01/20 13:16:19;;;;;;;;;;;6.30;84.30;;;;;;5052186;28;20409;-87
2022/01/20 13:18:55;;;;;;;;;;;6.30;84.70;;;;;;5057625;28;19921;-87
2022/01/20 13:21:26;;;;;;;;;;;6.30;85.40;;;;;;5050646;28;19921;-87
2022/01/20 13:23:55;;;;;;;;;;;6.20;85.60;;;;;;5052857;28;20011;-87
2022/01/20 13:26:21;;;;;;;;;;;6.20;85.40;;;;;;5050565;28;19913;-87
2022/01/20 13:28:57;;;;;;;;;;;6.10;85.40;;;;;;5053892;28;20309;-87
2022/01/20 13:31:22;;;;;;;;;;;6.10;85.50;;;;;;5055441;28;19935;-87
2022/01/20 13:33:49;;;;;;;;;;;6.20;85.80;;;;;;5057576;28;20366;-87
2022/01/20 13:36:14;;;;;;;;;;;6.20;86.00;;;;;;5049669;28;19959;-88
2022/01/20 13:38:45;;;;;;;;;;;6.20;84.40;;;;;;5056095;28;20305;-88
2022/01/20 13:41:12;;;;;;;;;;;6.20;84.00;;;;;;5053975;28;19913;-88
2022/01/20 13:46:45;;;;;;;;;;;6.20;83.90;;;;;;5053999;28;20004;-87
2022/01/20 13:49:15;;;;;;;;;;;6.20;84.50;;;;;;5054855;28;20282;-87
2022/01/20 13:51:41;;;;;;;;;;;6.20;85.40;;;;;;5050499;28;19921;-87
2022/01/20 13:54:07;;;;;;;;;;;6.10;85.60;;;;;;5052103;28;19926;-88
2022/01/20 13:56:33;;;;;;;;;;;6.10;85.20;;;;;;5055026;28;20406;-87
2022/01/20 13:59:06;;;;;;;;;;;6.10;85.20;;;;;;5052086;28;19913;-87
2022/01/20 14:01:31;;;;;;;;;;;6.00;85.40;;;;;;5051472;28;19912;-87
2022/01/20 14:03:57;;;;;;;;;;;6.00;85.50;;;;;;5051900;28;19919;-87
2022/01/20 14:06:22;;;;;;;;;;;6.10;86.10;;;;;;5048587;28;21275;-87
2022/01/20 14:08:48;;;;;;;;;;;6.10;85.30;;;;;;5049228;28;19965;-87
2022/01/20 14:11:15;;;;;;;;;;;6.00;85.50;;;;;;5049362;28;19932;-87
2022/01/20 14:13:40;;;;;;;;;;;6.00;85.60;;;;;;5049665;28;19919;-87
2022/01/20 14:16:06;;;;;;;;;;;6.00;85.90;;;;;;5054856;28;19921;-87
2022/01/20 14:18:40;;;;;;;;;;;6.00;86.20;;;;;;5053506;28;19928;-87
2022/01/20 14:21:07;;;;;;;;;;;6.00;85.90;;;;;;5049690;28;19916;-87
2022/01/20 14:23:32;;;;;;;;;;;6.00;86.10;;;;;;5050907;28;20046;-87
2022/01/20 14:26:00;;;;;;;;;;;5.90;86.40;;;;;;5050250;28;19987;-87
2022/01/20 14:28:26;;;;;;;;;;;5.90;86.90;;;;;;5058529;28;20485;-87
2022/01/20 14:30:52;;;;;;;;;;;5.90;87.10;;;;;;5049997;28;20011;-87
2022/01/20 14:33:17;;;;;;;;;;;5.90;86.90;;;;;;5049042;28;20004;-87
2022/01/20 14:35:44;;;;;;;;;;;5.80;86.90;;;;;;5050844;28;20074;-87
2022/01/20 14:38:10;;;;;;;;;;;5.70;87.30;;;;;;5065372;28;19924;-87
2022/01/20 14:40:36;;;;;;;;;;;5.70;87.60;;;;;;5052347;28;19912;-87
2022/01/20 14:43:01;;;;;;;;;;;5.70;87.40;;;;;;5050849;28;19920;-87
2022/01/20 14:45:27;;;;;;;;;;;5.70;87.60;;;;;;5049677;28;20011;-87
2022/01/20 14:47:53;;;;;;;;;;;5.70;87.40;;;;;;5050085;28;19916;-87
2022/01/20 14:50:27;;;;;;;;;;;5.70;87.50;;;;;;5048686;28;19913;-87
2022/01/20 14:52:52;;;;;;;;;;;5.70;87.40;;;;;;5050308;28;20185;-87
2022/01/20 14:55:18;;;;;;;;;;;5.80;87.40;;;;;;5053882;22;20105;-87
2022/01/20 14:57:45;;;;;;;;;;;5.80;87.50;;;;;;5040471;28;23203;-87
2022/01/20 15:00:14;;;;;;;;;;;5.70;87.20;;;;;;5043319;28;19919;-87
2022/01/20 15:02:40;;;;;;;;;;;5.70;87.20;;;;;;5039648;28;19936;-87
2022/01/20 15:05:08;;;;;;;;;;;5.70;87.30;;;;;;5043229;28;20359;-87
2022/01/20 15:07:34;;;;;;;;;;;5.60;87.60;;;;;;5044948;28;19913;-87
2022/01/20 15:09:59;;;;;;;;;;;5.60;87.70;;;;;;5042496;28;20267;-87
2022/01/20 15:12:25;;;;;;;;;;;5.60;87.70;;;;;;5046716;28;19934;-87
2022/01/20 15:14:50;;;;;;;;;;;5.50;87.80;;;;;;5035873;28;19917;-87
2022/01/20 15:17:16;;;;;;;;;;;5.40;87.90;;;;;;5040137;28;19952;-87
2022/01/20 15:19:41;;;;;;;;;;;5.40;88.00;;;;;;5045588;28;19913;-87
2022/01/20 15:22:07;;;;;;;;;;;5.40;88.50;;;;;;5035126;28;19913;-87
2022/01/20 15:24:35;;;;;;;;;;;5.40;88.80;;;;;;5044530;28;19932;-87
2022/01/20 15:27:01;;;;;;;;;;;5.30;89.00;;;;;;5043799;28;19920;-87
2022/01/20 15:29:27;;;;;;;;;;;5.30;89.30;;;;;;5040170;28;19920;-87
2022/01/20 15:31:53;;;;;;;;;;;5.30;89.40;;;;;;5040657;28;19917;-87
2022/01/20 15:34:18;;;;;;;;;;;5.30;89.50;;;;;;5042236;28;20371;-87